createdAt,value
2017-08-26T00:00:03.221Z,101177.10
2017-08-26T00:02:36.673Z,101169.77
2017-08-26T00:05:04.591Z,101171.09
2017-08-26T00:07:32.505Z,101169.31
2017-08-26T00:10:00.411Z,101164.89
2017-08-26T00:12:28.333Z,101157.89
2017-08-26T00:14:56.261Z,101150.05
2017-08-26T00:17:24.400Z,101158.80
2017-08-26T00:19:52.325Z,101156.70
2017-08-26T00:22:20.252Z,101157.90
2017-08-26T00:24:48.180Z,101160.61
2017-08-26T00:27:16.107Z,101156.27
2017-08-26T00:29:44.045Z,101160.77
2017-08-26T00:32:11.965Z,101162.52
2017-08-26T00:34:40.096Z,101148.45
2017-08-26T00:37:07.999Z,101148.87
2017-08-26T00:39:35.908Z,101153.72
2017-08-26T00:42:03.827Z,101156.37
2017-08-26T00:44:31.768Z,101161.22
2017-08-26T00:46:59.706Z,101165.16
2017-08-26T00:49:27.627Z,101163.43
2017-08-26T00:51:55.548Z,101161.73
2017-08-26T00:54:23.470Z,101167.09
2017-08-26T00:56:51.414Z,101172.31
2017-08-26T00:59:19.344Z,101172.82
2017-08-26T01:01:47.266Z,101172.81
2017-08-26T01:04:15.200Z,101166.30
2017-08-26T01:06:43.125Z,101170.65
2017-08-26T01:09:11.152Z,101173.71
2017-08-26T01:11:39.092Z,101180.31
2017-08-26T01:14:07.024Z,101175.02
2017-08-26T01:16:34.928Z,101173.78
2017-08-26T01:19:02.858Z,101175.08
2017-08-26T01:21:30.767Z,101167.12
2017-08-26T01:23:58.865Z,101170.69
2017-08-26T01:26:26.779Z,101171.59
2017-08-26T01:28:54.698Z,101167.19
2017-08-26T01:31:22.628Z,101171.59
2017-08-26T01:33:50.544Z,101174.22
2017-08-26T01:36:18.473Z,101167.66
2017-08-26T01:38:46.380Z,101167.23
2017-08-26T01:41:14.299Z,101165.48
2017-08-26T01:43:42.216Z,101167.67
2017-08-26T01:46:10.145Z,101169.45
2017-08-26T01:48:38.051Z,101175.16
2017-08-26T01:51:06.144Z,101169.42
2017-08-26T01:53:34.060Z,101174.26
2017-08-26T01:56:01.968Z,101173.84
2017-08-26T01:58:29.892Z,101170.75
2017-08-26T02:00:58.049Z,101176.05
2017-08-26T02:03:25.989Z,101172.58
2017-08-26T02:05:53.905Z,101169.94
2017-08-26T02:08:21.832Z,101173.89
2017-08-26T02:10:49.927Z,101173.41
2017-08-26T02:13:17.860Z,101173.45
2017-08-26T02:15:45.835Z,101171.25
2017-08-26T02:18:13.903Z,101168.63
2017-08-26T02:20:41.823Z,101173.91
2017-08-26T02:23:09.747Z,101172.19
2017-08-26T02:25:37.946Z,101169.16
2017-08-26T02:28:05.864Z,101171.80
2017-08-26T02:30:33.796Z,101177.51
2017-08-26T02:33:01.730Z,101172.24
2017-08-26T02:35:29.669Z,101170.48
2017-08-26T02:37:57.771Z,101176.20
2017-08-26T02:40:25.840Z,101169.17
2017-08-26T02:42:53.760Z,101176.23
2017-08-26T02:45:21.687Z,101174.91
2017-08-26T02:47:49.612Z,101181.94
2017-08-26T02:50:17.533Z,101172.72
2017-08-26T02:52:45.461Z,101165.26
2017-08-26T02:55:13.374Z,101169.67
2017-08-26T02:57:41.295Z,101167.48
2017-08-26T03:00:09.209Z,101171.88
2017-08-26T03:02:37.573Z,101169.67
2017-08-26T03:05:05.486Z,101167.92
2017-08-26T03:07:33.402Z,101167.48
2017-08-26T03:10:01.346Z,101163.53
2017-08-26T03:12:29.264Z,101154.75
2017-08-26T03:14:57.193Z,101162.22
2017-08-26T03:17:25.120Z,101161.78
2017-08-26T03:19:53.300Z,101158.70
2017-08-26T03:22:21.229Z,101157.83
2017-08-26T03:24:49.154Z,101154.34
2017-08-26T03:27:17.067Z,101160.05
2017-08-26T03:29:45.376Z,101157.86
2017-08-26T03:32:13.280Z,101157.86
2017-08-26T03:34:41.203Z,101156.54
2017-08-26T03:37:09.125Z,101160.05
2017-08-26T03:39:37.044Z,101159.58
2017-08-26T03:42:04.970Z,101161.37
2017-08-26T03:44:32.895Z,101159.14
2017-08-26T03:47:00.835Z,101164.88
2017-08-26T03:49:28.754Z,101163.97
2017-08-26T03:51:56.682Z,101173.63
2017-08-26T03:54:24.592Z,101173.22
2017-08-26T03:56:52.525Z,101171.02
2017-08-26T03:59:20.444Z,101174.94
2017-08-26T04:01:48.359Z,101174.97
2017-08-26T04:04:16.282Z,101176.72
2017-08-26T04:06:44.188Z,101180.22
2017-08-26T04:09:12.107Z,101176.71
2017-08-26T04:11:40.019Z,101174.53
2017-08-26T04:14:07.941Z,101177.16
2017-08-26T04:16:35.856Z,101173.20
2017-08-26T04:19:03.780Z,101171.02
2017-08-26T04:21:31.698Z,101171.02
2017-08-26T04:23:59.631Z,101174.53
2017-08-26T04:26:27.560Z,101158.30
2017-08-26T04:28:55.692Z,101159.17
2017-08-26T04:31:23.600Z,101160.02
2017-08-26T04:33:51.505Z,101156.95
2017-08-26T04:36:19.432Z,101152.97
2017-08-26T04:38:47.341Z,101155.13
2017-08-26T04:41:15.272Z,101148.49
2017-08-26T04:43:43.189Z,101140.95
2017-08-26T04:46:11.111Z,101142.22
2017-08-26T04:48:39.024Z,101141.30
2017-08-26T04:51:06.971Z,101146.52
2017-08-26T04:53:34.944Z,101155.50
2017-08-26T04:56:02.859Z,101146.09
2017-08-26T04:58:30.778Z,101148.50
2017-08-26T05:00:58.701Z,101149.26
2017-08-26T05:03:26.629Z,101150.80
2017-08-26T05:05:54.552Z,101144.59
2017-08-26T05:08:22.474Z,101143.02
2017-08-26T05:10:50.413Z,101146.48
2017-08-26T05:13:18.325Z,101144.02
2017-08-26T05:15:46.236Z,101142.52
2017-08-26T05:18:14.154Z,101146.03
2017-08-26T05:20:42.086Z,101148.95
2017-08-26T05:23:10.016Z,101142.97
2017-08-26T05:25:37.946Z,101144.36
2017-08-26T05:28:05.872Z,101154.97
2017-08-26T05:30:33.800Z,101152.41
2017-08-26T05:33:02.110Z,101153.56
2017-08-26T05:35:30.029Z,101143.99
2017-08-26T05:37:57.965Z,101148.59
2017-08-26T05:40:25.883Z,101151.52
2017-08-26T05:42:53.792Z,101150.77
2017-08-26T05:45:21.716Z,101166.42
2017-08-26T05:47:49.675Z,101155.29
2017-08-26T05:50:17.612Z,101161.02
2017-08-26T05:52:45.523Z,101160.91
2017-08-26T05:55:13.463Z,101160.53
2017-08-26T05:57:41.374Z,101143.86
2017-08-26T06:00:09.300Z,101148.80
2017-08-26T06:02:37.215Z,101138.62
2017-08-26T06:05:05.303Z,101134.48
2017-08-26T06:07:33.222Z,101135.22
2017-08-26T06:10:01.136Z,101134.50
2017-08-26T06:12:29.114Z,101130.18
2017-08-26T06:14:57.038Z,101139.84
2017-08-26T06:17:24.960Z,101134.98
2017-08-26T06:19:52.920Z,101135.84
2017-08-26T06:22:20.836Z,101139.75
2017-08-26T06:24:48.778Z,101144.34
2017-08-26T06:27:16.705Z,101134.69
2017-08-26T06:29:44.608Z,101140.80
2017-08-26T06:32:12.669Z,101143.17
2017-08-26T06:34:40.588Z,101132.55
2017-08-26T06:37:08.499Z,101110.95
2017-08-26T06:39:36.436Z,101100.36
2017-08-26T06:42:04.364Z,101098.73
2017-08-26T06:44:32.301Z,101101.94
2017-08-26T06:47:00.225Z,101111.87
2017-08-26T06:49:28.148Z,101115.99
2017-08-26T06:51:56.058Z,101111.03
2017-08-26T06:54:23.976Z,101101.98
2017-08-26T06:56:51.958Z,101105.63
2017-08-26T06:59:20.133Z,101110.70
2017-08-26T07:01:48.064Z,101115.19
2017-08-26T07:04:15.979Z,101107.30
2017-08-26T07:06:43.908Z,101118.66
2017-08-26T07:09:11.828Z,101108.46
2017-08-26T07:11:39.748Z,101107.19
2017-08-26T07:14:07.651Z,101114.95
2017-08-26T07:16:35.620Z,101120.93
2017-08-26T07:19:03.548Z,101120.64
2017-08-26T07:21:31.473Z,101117.35
2017-08-26T07:23:59.385Z,101121.85
2017-08-26T07:26:27.501Z,101121.31
2017-08-26T07:28:55.421Z,101111.46
2017-08-26T07:31:23.339Z,101116.16
2017-08-26T07:33:51.272Z,101120.02
2017-08-26T07:36:19.386Z,101115.75
2017-08-26T07:38:47.550Z,101114.48
2017-08-26T07:41:15.456Z,101111.44
2017-08-26T07:43:43.364Z,101110.84
2017-08-26T07:46:11.294Z,101106.81
2017-08-26T07:48:39.199Z,101100.30
2017-08-26T07:51:07.120Z,101098.27
2017-08-26T07:53:35.032Z,101094.45
2017-08-26T07:56:03.345Z,101103.50
2017-08-26T07:58:31.268Z,101112.24
2017-08-26T08:00:59.188Z,101113.91
2017-08-26T08:03:27.111Z,101124.37
2017-08-26T08:05:55.047Z,101113.61
2017-08-26T08:08:23.096Z,101118.86
2017-08-26T08:10:51.287Z,101110.91
2017-08-26T08:13:19.204Z,101121.34
2017-08-26T08:15:47.132Z,101119.52
2017-08-26T08:18:15.039Z,101130.57
2017-08-26T08:20:42.970Z,101133.13
2017-08-26T08:23:10.881Z,101138.59
2017-08-26T08:25:38.801Z,101143.69
2017-08-26T08:28:06.738Z,101141.13
2017-08-26T08:30:34.656Z,101143.42
2017-08-26T08:33:02.594Z,101131.02
2017-08-26T08:35:30.511Z,101133.30
2017-08-26T08:37:58.454Z,101125.16
2017-08-26T08:40:26.354Z,101120.01
2017-08-26T08:42:54.293Z,101118.91
2017-08-26T08:45:22.198Z,101111.45
2017-08-26T08:47:50.296Z,101107.95
2017-08-26T08:50:18.208Z,101103.19
2017-08-26T08:52:46.360Z,101104.33
2017-08-26T08:55:14.281Z,101103.48
2017-08-26T08:57:42.220Z,101098.76
2017-08-26T09:00:10.304Z,101104.72
2017-08-26T09:02:38.279Z,101111.31
2017-08-26T09:05:06.281Z,101107.55
2017-08-26T09:07:34.208Z,101100.25
2017-08-26T09:10:02.132Z,101104.05
2017-08-26T09:12:30.043Z,101105.48
2017-08-26T09:14:57.946Z,101103.34
2017-08-26T09:17:26.071Z,101097.40
2017-08-26T09:20:53.667Z,101092.38
2017-08-26T09:23:21.570Z,101093.63
2017-08-26T09:25:49.471Z,101094.59
2017-08-26T09:28:17.396Z,101095.22
2017-08-26T09:30:45.312Z,101091.42
2017-08-26T09:33:13.303Z,101088.42
2017-08-26T09:35:41.216Z,101088.41
2017-08-26T09:38:09.316Z,101087.98
2017-08-26T09:40:37.232Z,101093.28
2017-08-26T09:43:05.391Z,101095.92
2017-08-26T09:45:33.311Z,101097.59
2017-08-26T09:48:01.254Z,101086.53
2017-08-26T09:50:29.187Z,101087.11
2017-08-26T09:52:57.122Z,101092.40
2017-08-26T09:55:25.192Z,101086.92
2017-08-26T09:57:53.110Z,101088.92
2017-08-26T10:00:21.032Z,101093.59
2017-08-26T10:02:49.010Z,101088.54
2017-08-26T10:05:16.925Z,101085.86
2017-08-26T10:07:44.848Z,101086.11
2017-08-26T10:10:12.776Z,101074.72
2017-08-26T10:12:40.697Z,101075.43
2017-08-26T10:15:08.596Z,101072.44
2017-08-26T10:17:36.966Z,101072.13
2017-08-26T10:20:04.887Z,101065.66
2017-08-26T10:22:32.792Z,101065.17
2017-08-26T10:25:00.702Z,101063.30
2017-08-26T10:27:28.628Z,101058.34
2017-08-26T10:29:56.675Z,101061.02
2017-08-26T10:32:24.601Z,101057.53
2017-08-26T10:34:52.525Z,101057.45
2017-08-26T10:37:20.452Z,101048.23
2017-08-26T10:39:48.372Z,101050.59
2017-08-26T10:42:16.413Z,101049.79
2017-08-26T10:44:44.310Z,101046.80
2017-08-26T10:47:12.217Z,101038.86
2017-08-26T10:49:40.143Z,101037.89
2017-08-26T10:52:08.073Z,101041.77
2017-08-26T10:54:35.990Z,101041.69
2017-08-26T10:57:03.912Z,101037.81
2017-08-26T10:59:31.854Z,101035.30
2017-08-26T11:01:59.777Z,101045.65
2017-08-26T11:04:27.711Z,101035.59
2017-08-26T11:06:55.628Z,101020.21
2017-08-26T11:09:23.656Z,101021.02
2017-08-26T11:11:51.563Z,101012.36
2017-08-26T11:14:19.488Z,101014.44
2017-08-26T11:16:47.479Z,101003.41
2017-08-26T11:19:15.399Z,101006.19
2017-08-26T11:21:43.314Z,100996.72
2017-08-26T11:24:11.206Z,101002.17
2017-08-26T11:26:39.132Z,101001.67
2017-08-26T11:29:07.030Z,101004.52
2017-08-26T11:31:35.027Z,100999.11
2017-08-26T11:34:02.935Z,100993.11
2017-08-26T11:36:31.043Z,100994.49
2017-08-26T11:38:58.968Z,100992.67
2017-08-26T11:41:26.896Z,100989.58
2017-08-26T11:43:54.837Z,100980.23
2017-08-26T11:46:23.070Z,100977.53
2017-08-26T11:48:51.099Z,100965.38
2017-08-26T11:51:19.019Z,100966.42
2017-08-26T11:53:46.909Z,100950.71
2017-08-26T11:56:14.852Z,100959.66
2017-08-26T11:58:42.758Z,100953.81
2017-08-26T12:01:11.178Z,100961.47
2017-08-26T12:03:39.094Z,100959.14
2017-08-26T12:06:07.047Z,100959.53
2017-08-26T12:08:34.971Z,100956.73
2017-08-26T12:11:02.900Z,100961.03
2017-08-26T12:13:30.826Z,100956.98
2017-08-26T12:15:58.749Z,100954.34
2017-08-26T12:18:26.657Z,100941.48
2017-08-26T12:20:54.712Z,100947.63
2017-08-26T12:23:22.615Z,100951.24
2017-08-26T12:25:50.536Z,100944.49
2017-08-26T12:28:18.756Z,100942.77
2017-08-26T12:30:46.668Z,100948.48
2017-08-26T12:33:14.570Z,100943.44
2017-08-26T12:35:42.489Z,100942.83
2017-08-26T12:38:10.410Z,100951.48
2017-08-26T12:40:38.311Z,100939.75
2017-08-26T12:43:06.223Z,100940.29
2017-08-26T12:45:34.119Z,100943.97
2017-08-26T12:48:02.047Z,100931.17
2017-08-26T12:50:29.964Z,100934.92
2017-08-26T12:52:58.221Z,100931.83
2017-08-26T12:55:26.139Z,100937.02
2017-08-26T12:57:54.044Z,100934.38
2017-08-26T13:00:21.982Z,100932.87
2017-08-26T13:02:49.898Z,100921.85
2017-08-26T13:05:17.832Z,100908.44
2017-08-26T13:07:45.757Z,100915.02
2017-08-26T13:10:13.915Z,100917.47
2017-08-26T13:12:41.824Z,100920.17
2017-08-26T13:15:09.727Z,100916.83
2017-08-26T13:17:37.638Z,100915.67
2017-08-26T13:20:05.546Z,100909.14
2017-08-26T13:22:33.472Z,100917.86
2017-08-26T13:25:01.376Z,100908.30
2017-08-26T13:27:29.310Z,100917.09
2017-08-26T13:29:57.231Z,100914.52
2017-08-26T13:32:25.158Z,100909.27
2017-08-26T13:34:53.062Z,100910.20
2017-08-26T13:37:20.974Z,100906.02
2017-08-26T13:39:48.886Z,100907.98
2017-08-26T13:42:16.994Z,100909.17
2017-08-26T13:44:44.897Z,100904.78
2017-08-26T13:47:12.810Z,100910.38
2017-08-26T13:49:40.733Z,100911.81
2017-08-26T13:52:08.667Z,100913.88
2017-08-26T13:54:36.596Z,100905.14
2017-08-26T13:57:04.999Z,100897.91
2017-08-26T13:59:33.104Z,100898.06
2017-08-26T14:02:01.068Z,100897.52
2017-08-26T14:04:28.975Z,100894.71
2017-08-26T14:06:56.886Z,100892.14
2017-08-26T14:09:24.815Z,100888.64
2017-08-26T14:11:54.358Z,100885.95
2017-08-26T14:14:22.274Z,100880.79
2017-08-26T14:16:50.323Z,100878.73
2017-08-26T14:19:18.245Z,100883.34
2017-08-26T14:21:46.155Z,100882.24
2017-08-26T14:24:14.084Z,100883.95
2017-08-26T14:26:42.004Z,100885.69
2017-08-26T14:29:10.080Z,100871.80
2017-08-26T14:31:37.974Z,100870.50
2017-08-26T14:34:05.884Z,100873.52
2017-08-26T14:36:33.805Z,100867.05
2017-08-26T14:39:01.721Z,100869.67
2017-08-26T14:41:29.819Z,100862.55
2017-08-26T14:43:57.717Z,100851.20
2017-08-26T14:46:25.636Z,100845.30
2017-08-26T14:48:53.566Z,100849.61
2017-08-26T14:51:21.487Z,100845.80
2017-08-26T14:53:49.707Z,100853.91
2017-08-26T14:56:17.660Z,100846.77
2017-08-26T14:58:45.710Z,100840.68
2017-08-26T15:01:13.602Z,100833.79
2017-08-26T15:03:41.521Z,100840.92
2017-08-26T15:06:09.436Z,100830.77
2017-08-26T15:08:37.340Z,100836.84
2017-08-26T15:11:05.274Z,100837.98
2017-08-26T15:13:33.185Z,100845.73
2017-08-26T15:16:01.095Z,100835.93
2017-08-26T15:18:29.021Z,100834.00
2017-08-26T15:20:57.126Z,100823.53
2017-08-26T15:23:25.047Z,100830.23
2017-08-26T15:25:53.081Z,100832.57
2017-08-26T15:28:21.014Z,100833.81
2017-08-26T15:30:48.960Z,100830.66
2017-08-26T15:33:17.101Z,100831.02
2017-08-26T15:35:45.032Z,100827.14
2017-08-26T15:38:12.943Z,100823.92
2017-08-26T15:40:40.876Z,100811.11
2017-08-26T15:43:08.784Z,100813.05
2017-08-26T15:45:36.713Z,100819.16
2017-08-26T15:48:04.617Z,100818.27
2017-08-26T15:50:32.679Z,100810.71
2017-08-26T15:53:00.652Z,100804.97
2017-08-26T15:55:28.574Z,100807.05
2017-08-26T15:57:56.491Z,100809.91
2017-08-26T16:00:24.408Z,100807.28
2017-08-26T16:02:52.510Z,100800.41
2017-08-26T16:05:20.431Z,100800.97
2017-08-26T16:07:48.344Z,100798.53
2017-08-26T16:10:16.251Z,100798.84
2017-08-26T16:12:44.219Z,100794.67
2017-08-26T16:15:12.151Z,100791.92
2017-08-26T16:17:40.079Z,100791.23
2017-08-26T16:20:07.998Z,100791.55
2017-08-26T16:22:36.001Z,100784.12
2017-08-26T16:25:03.920Z,100782.73
2017-08-26T16:27:31.835Z,100788.39
2017-08-26T16:29:59.902Z,100783.02
2017-08-26T16:32:27.809Z,100784.98
2017-08-26T16:34:55.723Z,100778.89
2017-08-26T16:37:23.652Z,100775.05
2017-08-26T16:39:51.563Z,100782.77
2017-08-26T16:42:19.495Z,100783.95
2017-08-26T16:44:47.413Z,100775.86
2017-08-26T16:47:15.581Z,100778.37
2017-08-26T16:49:43.508Z,100771.73
2017-08-26T16:52:11.416Z,100773.31
2017-08-26T16:54:39.336Z,100774.89
2017-08-26T16:57:07.239Z,100776.88
2017-08-26T16:59:35.167Z,100780.97
2017-08-26T17:02:03.070Z,100778.89
2017-08-26T17:04:30.987Z,100781.70
2017-08-26T17:06:58.908Z,100770.30
2017-08-26T17:09:27.119Z,100778.37
2017-08-26T17:11:55.036Z,100774.08
2017-08-26T17:14:22.971Z,100778.86
2017-08-26T17:16:50.872Z,100769.87
2017-08-26T17:19:18.779Z,100776.37
2017-08-26T17:21:46.716Z,100766.47
2017-08-26T17:24:14.619Z,100773.64
2017-08-26T17:26:42.698Z,100779.84
2017-08-26T17:29:10.609Z,100766.46
2017-08-26T17:31:38.516Z,100767.98
2017-08-26T17:34:06.431Z,100764.66
2017-08-26T17:36:34.335Z,100762.24
2017-08-26T17:39:02.266Z,100766.02
2017-08-26T17:41:30.360Z,100763.56
2017-08-26T17:43:58.288Z,100767.27
2017-08-26T17:46:26.197Z,100765.50
2017-08-26T17:48:54.211Z,100762.09
2017-08-26T17:51:22.112Z,100751.66
2017-08-26T17:53:50.027Z,100753.25
2017-08-26T17:56:17.973Z,100747.69
2017-08-26T17:58:45.881Z,100752.32
2017-08-26T18:01:13.800Z,100752.98
2017-08-26T18:03:41.709Z,100745.78
2017-08-26T18:06:09.642Z,100742.04
2017-08-26T18:08:37.542Z,100742.97
2017-08-26T18:11:05.449Z,100744.67
2017-08-26T18:13:33.525Z,100748.20
2017-08-26T18:16:01.428Z,100745.30
2017-08-26T18:18:29.339Z,100739.52
2017-08-26T18:20:57.281Z,100744.30
2017-08-26T18:23:25.189Z,100751.34
2017-08-26T18:25:53.118Z,100754.42
2017-08-26T18:28:21.028Z,100749.98
2017-08-26T18:30:49.175Z,100751.95
2017-08-26T18:33:17.095Z,100758.61
2017-08-26T18:35:45.001Z,100753.67
2017-08-26T18:38:12.913Z,100745.20
2017-08-26T18:40:40.827Z,100741.95
2017-08-26T18:43:08.762Z,100748.89
2017-08-26T18:45:36.674Z,100746.43
2017-08-26T18:48:04.597Z,100746.42
2017-08-26T18:50:32.786Z,100753.13
2017-08-26T18:53:00.712Z,100761.44
2017-08-26T18:55:28.638Z,100763.06
2017-08-26T18:57:56.551Z,100748.00
2017-08-26T19:00:24.481Z,100747.97
2017-08-26T19:02:52.393Z,100752.84
2017-08-26T19:05:20.311Z,100754.91
2017-08-26T19:07:48.444Z,100755.09
2017-08-26T19:10:16.402Z,100747.95
2017-08-26T19:12:44.377Z,100743.06
2017-08-26T19:15:12.314Z,100749.27
2017-08-26T19:17:40.207Z,100758.05
2017-08-26T19:20:08.291Z,100757.73
2017-08-26T19:22:36.217Z,100751.34
2017-08-26T19:25:04.737Z,100759.14
2017-08-26T19:27:32.639Z,100760.56
2017-08-26T19:30:00.546Z,100770.56
2017-08-26T19:32:28.460Z,100766.33
2017-08-26T19:34:56.386Z,100761.64
2017-08-26T19:37:24.624Z,100756.63
2017-08-26T19:39:52.552Z,100760.83
2017-08-26T19:42:20.871Z,100758.88
2017-08-26T19:44:48.767Z,100755.36
2017-08-26T19:47:16.693Z,100753.41
2017-08-26T19:49:44.606Z,100753.07
2017-08-26T19:52:12.504Z,100761.00
2017-08-26T19:54:40.429Z,100756.23
2017-08-26T19:57:08.336Z,100752.45
2017-08-26T19:59:36.251Z,100754.02
2017-08-26T20:02:04.431Z,100753.44
2017-08-26T20:04:32.575Z,100750.75
2017-08-26T20:07:00.501Z,100749.08
2017-08-26T20:09:28.451Z,100751.55
2017-08-26T20:11:56.464Z,100758.24
2017-08-26T20:14:24.373Z,100757.61
2017-08-26T20:16:52.302Z,100757.60
2017-08-26T20:19:20.225Z,100750.03
2017-08-26T20:21:48.497Z,100748.31
2017-08-26T20:24:16.679Z,100738.36
2017-08-26T20:26:44.597Z,100741.91
2017-08-26T20:29:12.530Z,100742.56
2017-08-26T20:31:40.438Z,100741.23
2017-08-26T20:34:08.356Z,100737.31
2017-08-26T20:36:36.275Z,100736.91
2017-08-26T20:39:04.217Z,100729.55
2017-08-26T20:41:32.133Z,100729.82
2017-08-26T20:44:00.058Z,100728.83
2017-08-26T20:46:28.005Z,100718.52
2017-08-26T20:48:55.902Z,100723.14
2017-08-26T20:51:23.825Z,100732.78
2017-08-26T20:53:51.739Z,100727.50
2017-08-26T20:56:19.661Z,100728.02
2017-08-26T20:58:47.561Z,100717.70
2017-08-26T21:01:15.784Z,100717.59
2017-08-26T21:03:43.693Z,100724.06
2017-08-26T21:06:11.591Z,100716.96
2017-08-26T21:08:39.524Z,100717.48
2017-08-26T21:11:07.436Z,100712.07
2017-08-26T21:13:35.369Z,100707.00
2017-08-26T21:16:03.294Z,100714.42
2017-08-26T21:18:31.467Z,100708.08
2017-08-26T21:20:59.383Z,100702.65
2017-08-26T21:23:27.297Z,100701.87
2017-08-26T21:25:55.230Z,100693.93
2017-08-26T21:28:23.140Z,100699.09
2017-08-26T21:30:51.053Z,100695.02
2017-08-26T21:33:18.965Z,100696.22
2017-08-26T21:35:46.883Z,100692.06
2017-08-26T21:38:14.789Z,100697.58
2017-08-26T21:40:42.898Z,100699.20
2017-08-26T21:43:10.815Z,100706.50
2017-08-26T21:45:38.728Z,100698.88
2017-08-26T21:48:06.656Z,100696.40
2017-08-26T21:50:34.559Z,100699.92
2017-08-26T21:53:02.470Z,100690.95
2017-08-26T21:55:30.393Z,100690.47
2017-08-26T21:57:58.320Z,100692.92
2017-08-26T22:00:26.240Z,100682.84
2017-08-26T22:02:54.453Z,100688.17
2017-08-26T22:05:22.371Z,100683.86
2017-08-26T22:07:50.399Z,100679.66
2017-08-26T22:10:18.303Z,100680.50
2017-08-26T22:12:46.222Z,100681.77
2017-08-26T22:15:14.154Z,100681.23
2017-08-26T22:17:42.063Z,100677.09
2017-08-26T22:20:09.975Z,100684.23
2017-08-26T22:22:37.892Z,100677.13
2017-08-26T22:25:05.811Z,100677.31
2017-08-26T22:27:33.720Z,100677.41
2017-08-26T22:30:01.863Z,100671.07
2017-08-26T22:32:29.758Z,100669.38
2017-08-26T22:34:57.671Z,100666.97
2017-08-26T22:37:25.684Z,100667.83
2017-08-26T22:39:53.608Z,100659.04
2017-08-26T22:42:21.527Z,100660.24
2017-08-26T22:44:49.450Z,100659.27
2017-08-26T22:47:17.367Z,100657.61
2017-08-26T22:49:45.271Z,100655.53
2017-08-26T22:52:13.201Z,100652.84
2017-08-26T22:54:41.112Z,100654.22
2017-08-26T22:57:09.029Z,100648.48
2017-08-26T22:59:36.932Z,100654.03
2017-08-26T23:02:04.980Z,100657.76
2017-08-26T23:04:32.902Z,100659.88
2017-08-26T23:07:00.793Z,100651.11
2017-08-26T23:09:28.706Z,100652.78
2017-08-26T23:11:56.613Z,100645.91
2017-08-26T23:14:24.526Z,100644.62
2017-08-26T23:16:52.423Z,100651.47
2017-08-26T23:19:20.345Z,100649.17
2017-08-26T23:21:48.335Z,100645.24
2017-08-26T23:24:16.390Z,100629.79
2017-08-26T23:26:44.300Z,100624.03
2017-08-26T23:29:12.210Z,100629.20
2017-08-26T23:31:40.154Z,100617.70
2017-08-26T23:34:08.055Z,100616.75
2017-08-26T23:36:35.973Z,100611.84
2017-08-26T23:39:03.886Z,100607.88
2017-08-26T23:41:31.815Z,100604.60
2017-08-26T23:43:59.727Z,100595.23
2017-08-26T23:46:27.638Z,100598.65
2017-08-26T23:48:55.826Z,100604.58
2017-08-26T23:51:23.962Z,100605.01
2017-08-26T23:53:51.878Z,100611.98
2017-08-26T23:56:19.782Z,100602.85
2017-08-26T23:58:47.690Z,100598.38
